createdAt,value
2022-12-14T00:03:45.668Z,23.17
2022-12-14T00:07:49.063Z,19.27
2022-12-14T00:11:50.912Z,19.23
2022-12-14T00:15:52.532Z,19.07
2022-12-14T00:19:54.939Z,19.60
2022-12-14T00:23:58.522Z,20.53
2022-12-14T00:28:00.196Z,20.17
2022-12-14T00:32:01.808Z,20.67
2022-12-14T00:36:05.195Z,28.90
2022-12-14T00:40:08.174Z,63.60
2022-12-14T00:44:09.851Z,52.80
2022-12-14T00:48:12.328Z,41.50
2022-12-14T00:52:14.098Z,21.43
2022-12-14T00:56:16.245Z,23.57
2022-12-14T01:00:18.100Z,22.30
2022-12-14T01:04:22.291Z,31.20
2022-12-14T01:08:24.232Z,20.07
2022-12-14T01:12:25.892Z,22.23
2022-12-14T01:16:27.546Z,23.47
2022-12-14T01:20:29.192Z,21.63
2022-12-14T01:24:30.882Z,18.87
2022-12-14T01:28:34.940Z,24.80
2022-12-14T01:32:36.734Z,24.60
2022-12-14T01:36:38.842Z,24.97
2022-12-14T01:40:40.851Z,20.00
2022-12-14T01:44:42.523Z,24.97
2022-12-14T01:48:45.486Z,23.93
2022-12-14T01:52:49.353Z,25.47
2022-12-14T01:56:52.251Z,19.53
2022-12-14T02:00:56.723Z,23.27
2022-12-14T02:05:02.145Z,22.90
2022-12-14T02:09:12.420Z,26.37
2022-12-14T02:13:20.522Z,25.07
2022-12-14T02:17:22.711Z,23.87
2022-12-14T02:21:57.929Z,26.47
2022-12-14T02:26:09.112Z,26.70
2022-12-14T02:30:22.729Z,25.50
2022-12-14T02:34:57.851Z,22.83
2022-12-14T02:39:07.546Z,28.40
2022-12-14T02:43:28.173Z,24.53
2022-12-14T02:47:49.382Z,25.50
2022-12-14T02:52:03.003Z,24.43
2022-12-14T02:56:10.118Z,23.87
2022-12-14T03:00:12.569Z,26.27
2022-12-14T03:04:14.883Z,26.93
2022-12-14T03:08:16.982Z,26.00
2022-12-14T03:12:20.999Z,26.97
2022-12-14T03:16:27.184Z,29.80
2022-12-14T03:20:33.016Z,28.40
2022-12-14T03:24:49.381Z,26.63
2022-12-14T03:28:55.916Z,27.20
2022-12-14T03:33:02.706Z,26.70
2022-12-14T03:37:14.776Z,28.07
2022-12-14T03:41:27.547Z,27.70
2022-12-14T03:45:49.903Z,27.87
2022-12-14T03:49:58.343Z,29.80
2022-12-14T03:54:08.702Z,29.67
2022-12-14T03:58:16.370Z,30.43
2022-12-14T04:02:40.887Z,29.37
2022-12-14T04:07:19.625Z,28.67
2022-12-14T04:11:42.129Z,30.87
2022-12-14T04:16:04.802Z,29.87
2022-12-14T04:20:27.957Z,27.43
2022-12-14T04:24:51.000Z,31.87
2022-12-14T04:29:22.669Z,31.10
2022-12-14T04:33:43.244Z,30.43
2022-12-14T04:37:52.537Z,27.73
2022-12-14T04:41:57.703Z,32.60
2022-12-14T04:46:05.505Z,30.87
2022-12-14T04:50:17.585Z,35.17
2022-12-14T04:54:22.928Z,33.07
2022-12-14T04:58:30.095Z,28.17
2022-12-14T05:03:10.327Z,30.40
2022-12-14T05:07:22.898Z,30.50
2022-12-14T05:11:54.742Z,32.73
2022-12-14T05:15:58.636Z,33.43
2022-12-14T05:20:00.248Z,34.83
2022-12-14T05:24:03.438Z,33.57
2022-12-14T05:28:05.327Z,32.00
2022-12-14T05:32:08.847Z,27.63
2022-12-14T05:36:11.009Z,33.50
2022-12-14T05:40:13.391Z,31.67
2022-12-14T05:44:15.080Z,31.67
2022-12-14T05:48:16.692Z,32.70
2022-12-14T05:52:18.457Z,28.93
2022-12-14T05:56:20.845Z,36.30
2022-12-14T06:00:22.611Z,30.67
2022-12-14T06:04:24.317Z,32.23
2022-12-14T06:08:26.036Z,30.07
2022-12-14T06:12:28.794Z,32.37
2022-12-14T06:16:30.499Z,31.00
2022-12-14T06:20:32.186Z,31.40
2022-12-14T06:24:33.872Z,32.57
2022-12-14T06:28:35.911Z,39.00
2022-12-14T06:32:37.527Z,34.07
2022-12-14T06:36:41.674Z,32.73
2022-12-14T06:40:43.554Z,34.57
2022-12-14T06:44:45.240Z,35.50
2022-12-14T06:48:54.698Z,38.43
2022-12-14T06:52:56.612Z,35.23
2022-12-14T06:56:58.308Z,51.57
2022-12-14T07:01:08.913Z,40.57
2022-12-14T07:05:10.715Z,33.63
2022-12-14T07:09:14.197Z,42.90
2022-12-14T07:13:15.832Z,36.70
2022-12-14T07:17:17.630Z,37.97
2022-12-14T07:21:20.741Z,37.20
2022-12-14T07:25:22.401Z,34.67
2022-12-14T07:29:24.054Z,50.83
2022-12-14T07:33:26.834Z,42.97
2022-12-14T07:37:28.756Z,44.73
2022-12-14T07:41:31.501Z,37.10
2022-12-14T07:45:33.166Z,35.60
2022-12-14T07:49:34.786Z,34.27
2022-12-14T07:53:38.480Z,36.37
2022-12-14T07:57:40.319Z,34.17
2022-12-14T08:01:43.538Z,35.47
2022-12-14T08:05:45.328Z,36.53
2022-12-14T08:09:47.998Z,38.17
2022-12-14T08:14:05.998Z,41.63
2022-12-14T08:18:07.679Z,40.33
2022-12-14T08:22:09.300Z,39.37
2022-12-14T08:26:10.964Z,42.17
2022-12-14T08:30:12.990Z,39.77
2022-12-14T08:34:20.703Z,35.60
2022-12-14T08:38:22.451Z,40.83
2022-12-14T08:42:24.127Z,44.40
2022-12-14T08:46:28.074Z,38.83
2022-12-14T08:50:30.000Z,42.97
2022-12-14T08:54:31.740Z,41.87
2022-12-14T08:58:34.673Z,35.70
2022-12-14T09:02:36.802Z,41.23
2022-12-14T09:06:39.522Z,38.57
2022-12-14T09:10:41.291Z,40.10
2022-12-14T09:14:46.482Z,38.87
2022-12-14T09:18:51.051Z,45.33
2022-12-14T09:22:52.869Z,41.60
2022-12-14T09:26:54.848Z,39.73
2022-12-14T09:30:58.244Z,42.63
2022-12-14T09:34:59.990Z,37.37
2022-12-14T09:39:02.177Z,38.70
2022-12-14T09:43:06.735Z,33.73
2022-12-14T09:47:13.030Z,36.43
2022-12-14T09:51:17.247Z,32.80
2022-12-14T09:55:21.848Z,42.57
2022-12-14T09:59:28.117Z,39.73
2022-12-14T10:04:06.772Z,35.77
2022-12-14T10:08:17.027Z,37.50
2022-12-14T10:12:39.039Z,40.00
2022-12-14T10:17:11.125Z,41.10
2022-12-14T10:21:20.393Z,39.73
2022-12-14T10:25:25.844Z,54.87
2022-12-14T10:29:41.350Z,42.60
2022-12-14T10:33:45.569Z,38.20
2022-12-14T10:38:13.343Z,37.97
2022-12-14T10:42:51.220Z,43.07
2022-12-14T10:47:11.815Z,35.83
2022-12-14T10:51:21.960Z,40.77
2022-12-14T10:55:27.725Z,43.20
2022-12-14T10:59:38.580Z,45.43
2022-12-14T11:03:43.806Z,42.93
2022-12-14T11:07:49.574Z,45.27
2022-12-14T11:12:03.580Z,40.33
2022-12-14T11:16:36.391Z,39.50
2022-12-14T11:20:49.448Z,39.23
2022-12-14T11:24:51.375Z,40.53
2022-12-14T11:28:56.435Z,36.80
2022-12-14T11:32:58.206Z,36.70
2022-12-14T11:37:22.498Z,45.00
2022-12-14T11:41:24.600Z,32.23
2022-12-14T11:45:26.262Z,34.87
2022-12-14T11:49:27.901Z,38.30
2022-12-14T11:53:29.567Z,36.43
2022-12-14T11:57:39.661Z,45.03
2022-12-14T12:01:42.527Z,48.37
2022-12-14T12:05:44.945Z,39.50
2022-12-14T12:09:46.654Z,37.33
2022-12-14T12:13:53.485Z,42.87
2022-12-14T12:18:28.850Z,48.00
2022-12-14T12:22:31.464Z,94.40
2022-12-14T12:26:50.089Z,35.90
2022-12-14T12:30:56.276Z,35.73
2022-12-14T12:35:11.807Z,37.50
2022-12-14T12:39:21.382Z,35.27
2022-12-14T12:43:31.967Z,37.20
2022-12-14T12:47:48.353Z,34.97
2022-12-14T12:51:58.698Z,32.63
2022-12-14T12:56:43.560Z,35.13
2022-12-14T13:00:55.550Z,34.77
2022-12-14T13:05:10.939Z,36.27
2022-12-14T13:09:24.590Z,35.17
2022-12-14T13:13:31.090Z,33.03
2022-12-14T13:17:32.671Z,31.97
2022-12-14T13:21:38.337Z,33.00
2022-12-14T13:25:58.151Z,34.47
2022-12-14T13:30:24.626Z,34.17
2022-12-14T13:34:29.256Z,33.10
2022-12-14T13:38:58.921Z,33.93
2022-12-14T13:43:19.330Z,34.83
2022-12-14T13:47:49.309Z,37.13
2022-12-14T13:51:52.355Z,38.13
2022-12-14T13:55:58.864Z,33.03
2022-12-14T14:00:01.915Z,33.63
2022-12-14T14:04:14.072Z,34.13
2022-12-14T14:08:41.378Z,33.93
2022-12-14T14:12:44.844Z,37.03
2022-12-14T14:16:57.026Z,37.30
2022-12-14T14:21:22.033Z,39.80
2022-12-14T14:25:40.220Z,34.53
2022-12-14T14:29:47.379Z,42.17
2022-12-14T14:33:55.904Z,38.37
2022-12-14T14:38:08.938Z,38.70
2022-12-14T14:42:20.882Z,40.37
2022-12-14T14:46:36.124Z,49.03
2022-12-14T14:50:42.374Z,51.37
2022-12-14T14:55:16.177Z,43.60
2022-12-14T14:59:14.803Z,39.83
2022-12-14T15:03:19.345Z,43.17
2022-12-14T15:07:29.864Z,56.63
2022-12-14T15:11:48.757Z,45.10
2022-12-14T15:15:53.078Z,42.37
2022-12-14T15:19:56.893Z,47.73
2022-12-14T15:23:58.556Z,81.87
2022-12-14T15:28:05.712Z,56.53
2022-12-14T15:32:07.552Z,48.40
2022-12-14T15:36:15.729Z,59.47
2022-12-14T15:40:30.191Z,46.40
2022-12-14T15:44:32.061Z,56.40
2022-12-14T15:48:35.218Z,50.90
2022-12-14T15:52:37.088Z,47.57
2022-12-14T15:56:50.973Z,46.43
2022-12-14T16:00:56.807Z,46.23
2022-12-14T16:05:02.132Z,42.37
2022-12-14T16:09:41.578Z,44.70
2022-12-14T16:13:44.951Z,46.80
2022-12-14T16:17:46.816Z,55.97
2022-12-14T16:22:05.070Z,48.63
2022-12-14T16:26:15.976Z,66.83
2022-12-14T16:30:33.021Z,56.13
2022-12-14T16:34:34.926Z,48.60
2022-12-14T16:38:56.125Z,48.10
2022-12-14T16:42:57.893Z,49.57
2022-12-14T16:47:02.667Z,47.47
2022-12-14T16:51:28.582Z,45.50
2022-12-14T16:56:01.464Z,54.17
2022-12-14T17:00:06.030Z,61.63
2022-12-14T17:04:09.368Z,54.37
2022-12-14T17:08:11.640Z,44.73
2022-12-14T17:12:15.429Z,48.47
2022-12-14T17:16:23.296Z,50.67
2022-12-14T17:20:36.727Z,39.27
2022-12-14T17:24:38.440Z,34.90
2022-12-14T17:28:40.128Z,35.27
2022-12-14T17:32:42.808Z,24.83
2022-12-14T17:36:45.598Z,23.70
2022-12-14T17:40:48.842Z,17.30
2022-12-14T17:44:54.434Z,18.33
2022-12-14T17:48:56.995Z,17.67
2022-12-14T17:53:00.265Z,16.70
2022-12-14T17:57:02.083Z,18.17
2022-12-14T18:01:04.557Z,18.00
2022-12-14T18:05:11.805Z,20.13
2022-12-14T18:09:13.484Z,16.80
2022-12-14T18:13:15.567Z,18.87
2022-12-14T18:17:17.272Z,21.90
2022-12-14T18:21:28.094Z,24.10
2022-12-14T18:25:34.177Z,22.83
2022-12-14T18:29:35.857Z,20.17
2022-12-14T18:33:38.921Z,23.47
2022-12-14T18:37:40.624Z,24.33
2022-12-14T18:41:42.540Z,22.43
2022-12-14T18:45:44.244Z,21.73
2022-12-14T18:49:45.942Z,25.03
2022-12-14T18:53:47.822Z,28.33
2022-12-14T18:57:50.811Z,23.53
2022-12-14T19:01:52.780Z,33.37
2022-12-14T19:10:40.219Z,20.50
2022-12-14T19:14:41.929Z,18.97
2022-12-14T19:18:43.591Z,19.30
2022-12-14T19:22:45.833Z,17.40
2022-12-14T19:26:49.503Z,19.83
2022-12-14T19:30:51.422Z,20.03
2022-12-14T19:34:53.384Z,21.33
2022-12-14T19:38:55.135Z,20.10
2022-12-14T19:42:58.090Z,18.80
2022-12-14T19:47:00.851Z,19.40
2022-12-14T19:51:08.580Z,17.97
2022-12-14T19:55:11.629Z,17.93
2022-12-14T19:59:13.346Z,18.27
2022-12-14T20:03:15.182Z,17.90
2022-12-14T20:07:17.080Z,19.87
2022-12-14T20:11:20.347Z,23.77
2022-12-14T20:15:22.044Z,21.30
2022-12-14T20:19:24.422Z,27.20
2022-12-14T20:23:26.076Z,26.60
2022-12-14T20:27:27.859Z,23.27
2022-12-14T20:31:29.721Z,24.50
2022-12-14T20:35:33.452Z,24.17
2022-12-14T20:39:35.123Z,22.27
2022-12-14T20:43:38.889Z,25.13
2022-12-14T20:47:40.563Z,25.07
2022-12-14T20:51:43.972Z,23.50
2022-12-14T20:55:45.678Z,25.13
2022-12-14T20:59:47.382Z,26.10
2022-12-14T21:03:50.656Z,26.80
2022-12-14T21:07:52.438Z,27.97
2022-12-14T21:12:12.801Z,26.10
2022-12-14T21:16:14.544Z,28.37
2022-12-14T21:20:16.422Z,27.47
2022-12-14T21:24:37.515Z,28.07
2022-12-14T21:28:40.424Z,26.60
2022-12-14T21:32:42.120Z,28.73
2022-12-14T21:36:44.068Z,28.80
2022-12-14T21:41:13.791Z,27.70
2022-12-14T21:45:15.473Z,26.20
2022-12-14T21:49:17.437Z,27.77
2022-12-14T21:53:19.136Z,30.43
2022-12-14T21:57:42.497Z,28.83
2022-12-14T22:01:44.792Z,29.60
2022-12-14T22:05:46.916Z,29.17
2022-12-14T22:09:49.593Z,27.93
2022-12-14T22:13:51.761Z,31.13
2022-12-14T22:17:53.403Z,27.77
2022-12-14T22:21:55.216Z,28.43
2022-12-14T22:25:57.305Z,31.40
2022-12-14T22:29:59.024Z,31.67
2022-12-14T22:34:01.277Z,32.53
2022-12-14T22:38:03.003Z,34.53
2022-12-14T22:42:04.906Z,34.60
2022-12-14T22:46:07.002Z,35.83
2022-12-14T22:50:09.212Z,36.57
2022-12-14T22:54:24.786Z,29.50
2022-12-14T22:58:28.767Z,30.67
2022-12-14T23:02:31.292Z,30.20
2022-12-14T23:06:33.952Z,29.50
2022-12-14T23:11:44.806Z,30.40
2022-12-14T23:17:00.853Z,29.03
2022-12-14T23:23:00.307Z,31.13
2022-12-14T23:28:03.628Z,30.83
2022-12-14T23:32:24.024Z,32.13
2022-12-14T23:36:44.140Z,33.63
2022-12-14T23:43:31.735Z,31.53
2022-12-14T23:47:52.584Z,29.20
2022-12-14T23:52:13.080Z,27.33
2022-12-14T23:56:33.570Z,28.80
